Time;durP1;ratioP1;P1;durP2;ratioP2;P2;SDS_P1;SDS_P2;PMS_P1;PMS_P2;Temp;Humidity;BMP_temperature;BMP_pressure;BME280_temperature;BME280_humidity;BME280_pressure;Samples;Min_cycle;Max_cycle;Signal;HPM_P1;HPM_P2
2021/10/22 04:01:24;;;;;;;2.03;1.15;;;7.00;99.90;;;;;;5479691;23;20241;-71
2021/10/22 04:03:51;;;;;;;4.55;1.48;;;7.00;99.90;;;;;;4956051;28;20613;-71
2021/10/22 04:06:18;;;;;;;2.00;1.25;;;7.00;99.90;;;;;;4951756;28;20214;-71
2021/10/22 04:08:45;;;;;;;4.35;1.80;;;7.00;99.90;;;;;;4936611;29;20329;-70
2021/10/22 04:11:11;;;;;;;3.00;1.60;;;7.00;99.90;;;;;;4930087;29;20309;-71
2021/10/22 04:13:38;;;;;;;2.42;1.23;;;7.00;99.90;;;;;;4917190;29;20233;-69
2021/10/22 04:16:05;;;;;;;8.93;1.75;;;7.00;99.90;;;;;;4953088;23;20233;-73
2021/10/22 04:18:33;;;;;;;4.95;1.15;;;6.90;99.90;;;;;;4955782;29;20213;-73
2021/10/22 04:21:00;;;;;;;2.40;1.98;;;7.00;99.90;;;;;;4948070;29;20237;-73
2021/10/22 04:23:27;;;;;;;2.55;1.30;;;6.90;99.90;;;;;;4955687;29;20217;-73
2021/10/22 04:25:54;;;;;;;1.90;1.13;;;6.90;99.90;;;;;;4952784;29;20229;-73
2021/10/22 04:28:21;;;;;;;2.90;1.08;;;6.90;99.90;;;;;;4959230;28;20328;-73
2021/10/22 04:30:48;;;;;;;2.25;1.10;;;7.00;99.90;;;;;;4941519;28;20683;-73
2021/10/22 04:33:15;;;;;;;6.45;2.45;;;7.00;99.90;;;;;;4952237;28;20585;-73
2021/10/22 04:35:43;;;;;;;5.53;1.50;;;7.00;99.90;;;;;;4952195;28;20304;-72
2021/10/22 04:40:55;;;;;;;3.08;0.90;;;7.10;99.90;;;;;;4936344;29;20329;-73
2021/10/22 04:43:23;;;;;;;7.22;1.70;;;7.10;99.90;;;;;;4935626;29;20682;-72
2021/10/22 04:45:52;;;;;;;1.35;1.10;;;7.10;99.90;;;;;;4949220;29;20221;-73
2021/10/22 04:48:19;;;;;;;6.05;1.35;;;7.20;99.90;;;;;;4954995;28;20689;-72
2021/10/22 04:50:50;;;;;;;4.35;2.20;;;7.20;99.90;;;;;;4941730;28;20206;-72
2021/10/22 04:53:18;;;;;;;6.32;1.60;;;7.20;99.90;;;;;;4949948;28;20229;-74
2021/10/22 04:55:44;;;;;;;4.70;1.83;;;7.20;99.90;;;;;;4948281;29;20312;-73
2021/10/22 04:58:11;;;;;;;6.97;1.63;;;7.20;99.90;;;;;;4920287;29;20213;-73
2021/10/22 05:00:38;;;;;;;7.43;1.52;;;7.20;99.90;;;;;;4951955;28;20201;-72
2021/10/22 05:03:05;;;;;;;6.80;1.63;;;7.30;99.90;;;;;;4937292;28;20206;-72
2021/10/22 05:05:32;;;;;;;4.45;1.55;;;7.30;99.90;;;;;;4940659;29;20563;-73
2021/10/22 05:08:00;;;;;;;4.18;1.42;;;7.40;99.90;;;;;;4936134;28;20607;-71
2021/10/22 05:10:27;;;;;;;6.30;1.75;;;7.30;99.90;;;;;;4943176;29;20205;-71
2021/10/22 05:12:53;;;;;;;2.90;1.35;;;7.40;99.90;;;;;;4937059;28;20210;-72
2021/10/22 05:15:20;;;;;;;2.38;1.10;;;7.40;99.90;;;;;;4939653;29;20240;-71
2021/10/22 05:17:46;;;;;;;4.55;1.92;;;7.40;99.90;;;;;;4935295;29;20320;-72
2021/10/22 05:20:13;;;;;;;4.70;1.50;;;7.40;99.90;;;;;;4940060;28;20221;-71
2021/10/22 05:22:41;;;;;;;2.88;1.30;;;7.40;99.90;;;;;;4935530;29;20209;-71
2021/10/22 05:25:11;;;;;;;6.80;2.05;;;7.40;99.90;;;;;;4937707;29;20241;-71
2021/10/22 05:27:39;;;;;;;5.15;1.83;;;7.40;99.90;;;;;;4939384;29;20667;-72
2021/10/22 05:30:08;;;;;;;3.63;1.10;;;7.50;99.90;;;;;;4935454;29;20253;-72
2021/10/22 05:32:34;;;;;;;6.78;1.88;;;7.50;99.90;;;;;;4935343;29;20214;-72
2021/10/22 05:35:01;;;;;;;6.53;1.52;;;7.50;99.90;;;;;;4938074;29;20599;-71
2021/10/22 05:37:28;;;;;;;2.97;1.70;;;7.50;99.90;;;;;;4935472;29;20210;-71
2021/10/22 05:39:55;;;;;;;3.00;1.52;;;7.50;99.90;;;;;;4947577;29;20690;-71
2021/10/22 05:42:23;;;;;;;6.60;1.45;;;7.50;99.90;;;;;;4953991;28;20770;-72
2021/10/22 05:44:50;;;;;;;5.43;1.88;;;7.50;99.90;;;;;;4938507;28;20294;-72
2021/10/22 05:47:17;;;;;;;5.22;1.90;;;7.60;99.90;;;;;;4954416;28;20674;-71
2021/10/22 05:49:43;;;;;;;3.00;1.92;;;7.60;99.90;;;;;;4945297;28;20609;-71
2021/10/22 05:52:10;;;;;;;3.13;1.45;;;7.60;99.90;;;;;;4953702;28;20290;-71
2021/10/22 05:54:37;;;;;;;2.42;1.45;;;7.60;99.90;;;;;;4950350;28;20708;-72
2021/10/22 05:57:04;;;;;;;5.10;1.50;;;7.60;99.90;;;;;;4951918;28;20677;-71
2021/10/22 05:59:33;;;;;;;8.65;2.35;;;7.60;99.90;;;;;;4944397;28;20569;-72
2021/10/22 06:01:59;;;;;;;5.25;1.52;;;7.60;99.90;;;;;;4937158;29;20782;-72
2021/10/22 06:04:26;;;;;;;4.15;1.65;;;7.60;99.90;;;;;;4945564;29;20551;-71
2021/10/22 06:06:53;;;;;;;3.00;1.50;;;7.60;99.90;;;;;;4938152;28;20206;-73
2021/10/22 06:09:19;;;;;;;3.83;1.20;;;7.60;99.90;;;;;;4943855;29;20209;-72
2021/10/22 06:11:49;;;;;;;3.88;2.10;;;7.60;99.90;;;;;;4939680;28;20281;-71
2021/10/22 06:14:15;;;;;;;3.92;1.60;;;7.70;99.90;;;;;;4952660;29;20208;-72
2021/10/22 06:16:44;;;;;;;7.88;1.92;;;7.70;99.90;;;;;;4948500;28;20217;-71
2021/10/22 06:19:15;;;;;;;4.25;1.50;;;7.70;99.90;;;;;;4936578;28;20237;-71
2021/10/22 06:21:54;;;;;;;4.35;1.52;;;7.70;99.90;;;;;;4934867;29;20229;-71
2021/10/22 06:24:21;;;;;;;3.92;2.00;;;7.80;99.90;;;;;;4934788;29;20212;-73
2021/10/22 06:26:49;;;;;;;3.13;1.90;;;7.80;99.90;;;;;;4945636;29;20252;-72
2021/10/22 06:29:16;;;;;;;3.17;2.88;;;7.80;99.90;;;;;;4937378;28;20679;-72
2021/10/22 06:31:44;;;;;;;5.07;1.60;;;7.80;99.90;;;;;;4939980;29;20210;-71
2021/10/22 06:34:11;;;;;;;1.65;1.55;;;7.80;99.90;;;;;;4935623;29;20217;-71
2021/10/22 06:36:38;;;;;;;1.05;0.85;;;7.80;99.90;;;;;;4946262;29;20253;-72
2021/10/22 06:39:06;;;;;;;2.75;1.80;;;7.80;99.90;;;;;;4938602;28;20645;-71
2021/10/22 06:41:32;;;;;;;1.27;1.17;;;7.90;99.90;;;;;;4933948;29;20237;-72
2021/10/22 06:43:59;;;;;;;5.40;1.98;;;7.90;99.90;;;;;;4950953;29;20205;-70
2021/10/22 06:46:26;;;;;;;5.40;2.10;;;7.90;99.90;;;;;;4951856;28;20229;-71
2021/10/22 06:48:55;;;;;;;5.93;1.50;;;7.90;99.90;;;;;;4951855;28;20205;-70
2021/10/22 06:51:24;;;;;;;5.43;2.00;;;8.00;99.90;;;;;;4952729;28;20213;-71
2021/10/22 06:53:51;;;;;;;2.47;1.67;;;8.00;99.90;;;;;;4948384;29;20201;-71
2021/10/22 06:56:18;;;;;;;2.65;1.70;;;8.00;99.90;;;;;;4951548;28;20264;-71
2021/10/22 06:58:45;;;;;;;5.47;3.15;;;8.00;99.90;;;;;;4952626;29;20212;-70
2021/10/22 07:01:12;;;;;;;3.85;1.50;;;8.00;99.90;;;;;;4940887;28;20285;-71
2021/10/22 07:03:41;;;;;;;4.88;1.95;;;8.10;99.90;;;;;;4940570;29;20249;-71
2021/10/22 07:08:55;;;;;;;4.30;2.22;;;8.20;99.90;;;;;;4941465;29;20204;-72
2021/10/22 07:11:23;;;;;;;6.45;1.73;;;8.30;99.90;;;;;;4932297;29;20205;-73
2021/10/22 07:13:53;;;;;;;2.08;1.70;;;8.30;99.90;;;;;;4946115;29;20239;-73
2021/10/22 07:16:21;;;;;;;2.35;1.52;;;8.40;99.90;;;;;;4943745;28;20320;-72
2021/10/22 07:18:49;;;;;;;3.03;1.95;;;8.40;99.90;;;;;;4951160;28;20240;-72
2021/10/22 07:21:18;;;;;;;4.40;2.17;;;8.40;99.90;;;;;;4949439;29;20589;-72
2021/10/22 07:23:46;;;;;;;5.80;2.00;;;8.40;99.90;;;;;;4937279;28;20214;-72
2021/10/22 07:26:13;;;;;;;5.60;1.60;;;8.50;99.90;;;;;;4933178;29;20230;-71
2021/10/22 07:28:40;;;;;;;1.83;1.67;;;8.50;99.90;;;;;;4932567;29;20213;-71
2021/10/22 07:31:10;;;;;;;3.58;1.95;;;8.50;99.90;;;;;;4943634;29;20308;-72
2021/10/22 07:33:38;;;;;;;7.00;2.70;;;8.60;99.90;;;;;;4952772;28;20205;-72
2021/10/22 07:36:06;;;;;;;4.60;2.00;;;8.60;99.90;;;;;;4942159;28;20265;-71
2021/10/22 07:38:34;;;;;;;2.85;1.10;;;8.60;99.90;;;;;;4948164;29;20245;-71
2021/10/22 07:41:01;;;;;;;4.05;1.90;;;8.60;99.90;;;;;;4941913;29;20215;-72
2021/10/22 07:43:28;;;;;;;2.72;2.03;;;8.70;99.90;;;;;;4945604;28;20214;-72
2021/10/22 07:45:55;;;;;;;7.03;2.35;;;8.70;99.90;;;;;;4933448;29;20221;-71
2021/10/22 07:48:22;;;;;;;4.05;1.77;;;8.70;99.90;;;;;;4936331;29;20308;-72
2021/10/22 07:50:48;;;;;;;6.32;2.08;;;8.80;99.90;;;;;;4933695;29;20525;-72
2021/10/22 07:53:16;;;;;;;4.53;1.90;;;8.80;99.90;;;;;;4939700;29;20201;-71
2021/10/22 07:55:44;;;;;;;3.25;1.23;;;8.90;99.90;;;;;;4944167;28;20233;-71
2021/10/22 07:58:12;;;;;;;5.75;1.40;;;8.90;99.90;;;;;;4946780;28;20206;-71
2021/10/22 08:00:39;;;;;;;1.55;1.52;;;8.90;99.90;;;;;;4933368;29;20241;-72
2021/10/22 08:03:05;;;;;;;2.05;1.35;;;9.00;99.90;;;;;;4936822;29;20610;-72
2021/10/22 08:05:32;;;;;;;5.53;1.55;;;9.00;99.90;;;;;;4952488;28;20236;-72
2021/10/22 08:07:59;;;;;;;6.05;2.83;;;9.10;99.90;;;;;;4950798;28;20206;-71
2021/10/22 08:10:25;;;;;;;2.10;1.92;;;9.10;99.90;;;;;;4935329;28;20722;-71
2021/10/22 08:12:53;;;;;;;2.47;1.35;;;9.10;99.90;;;;;;4940694;29;20210;-72
2021/10/22 08:15:20;;;;;;;7.72;1.85;;;9.10;99.90;;;;;;4932996;29;20733;-72
2021/10/22 08:17:47;;;;;;;4.28;2.50;;;9.10;99.90;;;;;;4932868;29;20262;-71
2021/10/22 08:20:18;;;;;;;5.28;2.05;;;9.20;99.90;;;;;;4933338;29;20662;-71
2021/10/22 08:22:44;;;;;;;3.03;1.70;;;9.20;99.90;;;;;;4939626;29;20272;-72
2021/10/22 08:25:13;;;;;;;3.35;1.40;;;9.30;99.90;;;;;;4949658;28;20221;-71
2021/10/22 08:27:41;;;;;;;6.53;1.60;;;9.30;99.90;;;;;;4950632;29;20634;-72
2021/10/22 08:30:11;;;;;;;4.13;1.92;;;9.30;99.90;;;;;;4936670;28;20210;-72
2021/10/22 08:32:39;;;;;;;4.32;3.20;;;9.20;99.90;;;;;;4936717;29;20202;-71
2021/10/22 08:35:07;;;;;;;5.50;1.60;;;9.20;99.90;;;;;;4936544;29;20225;-71
2021/10/22 08:37:35;;;;;;;3.42;1.58;;;9.30;99.90;;;;;;4936388;29;20243;-73
2021/10/22 08:40:04;;;;;;;9.50;5.35;;;9.30;99.90;;;;;;4936369;29;20249;-71
2021/10/22 08:42:31;;;;;;;2.72;2.50;;;9.30;99.90;;;;;;4938279;29;20210;-71
2021/10/22 08:44:58;;;;;;;2.60;1.63;;;9.30;99.90;;;;;;4950486;28;20595;-71
2021/10/22 08:47:27;;;;;;;4.22;2.40;;;9.30;99.90;;;;;;4932002;29;20659;-71
2021/10/22 08:49:57;;;;;;;3.28;2.05;;;9.30;99.90;;;;;;4938032;29;20675;-71
2021/10/22 08:52:24;;;;;;;4.15;1.92;;;9.40;99.90;;;;;;4938044;29;20206;-70
2021/10/22 08:54:51;;;;;;;1.90;1.67;;;9.40;99.90;;;;;;4939926;29;20673;-71
2021/10/22 08:57:18;;;;;;;3.95;2.45;;;9.40;99.90;;;;;;4931819;29;20202;-70
2021/10/22 08:59:45;;;;;;;3.28;2.00;;;9.40;99.90;;;;;;4940254;28;20213;-71
2021/10/22 09:02:13;;;;;;;3.25;1.40;;;9.40;99.90;;;;;;4935852;29;20206;-71
2021/10/22 09:04:42;;;;;;;2.28;1.60;;;9.40;99.90;;;;;;4936197;29;20703;-71
2021/10/22 09:07:11;;;;;;;3.70;2.53;;;9.40;99.90;;;;;;4941568;29;20198;-71
2021/10/22 09:09:40;;;;;;;5.82;2.15;;;9.40;99.90;;;;;;4936056;29;20210;-71
2021/10/22 09:12:07;;;;;;;5.00;1.90;;;9.40;99.90;;;;;;4939025;29;20228;-70
2021/10/22 09:14:34;;;;;;;2.47;1.92;;;9.40;99.90;;;;;;4952194;28;20228;-71
2021/10/22 09:17:01;;;;;;;2.95;2.38;;;9.40;99.90;;;;;;4952190;28;20257;-71
2021/10/22 09:19:32;;;;;;;10.43;2.67;;;9.50;99.90;;;;;;4940132;29;20205;-71
2021/10/22 09:22:21;;;;;;;3.75;2.92;;;9.50;99.90;;;;;;4953164;28;20217;-70
2021/10/22 09:24:51;;;;;;;9.43;3.05;;;9.60;99.90;;;;;;4947599;29;20256;-71
2021/10/22 09:27:31;;;;;;;5.05;2.70;;;9.60;99.90;;;;;;4934667;29;20257;-70
2021/10/22 09:29:58;;;;;;;4.63;2.42;;;9.70;99.90;;;;;;4943655;29;20201;-70
2021/10/22 09:32:25;;;;;;;4.32;1.50;;;9.90;99.90;;;;;;4954975;28;20213;-70
2021/10/22 09:34:52;;;;;;;2.00;1.85;;;10.00;99.90;;;;;;4938217;28;20229;-71
2021/10/22 09:37:20;;;;;;;5.70;1.85;;;10.10;99.90;;;;;;4954681;28;20271;-69
2021/10/22 09:39:47;;;;;;;6.15;2.50;;;10.10;99.90;;;;;;4953600;28;20626;-70
2021/10/22 09:42:17;;;;;;;2.75;1.45;;;10.00;99.90;;;;;;4951386;28;20236;-70
2021/10/22 09:44:46;;;;;;;2.15;1.60;;;9.90;99.90;;;;;;4951135;28;20276;-71
2021/10/22 09:47:14;;;;;;;3.65;2.28;;;9.80;99.90;;;;;;4937394;28;20217;-70
2021/10/22 09:49:44;;;;;;;6.32;1.75;;;9.70;99.90;;;;;;4942935;29;20230;-70
2021/10/22 09:52:15;;;;;;;2.05;1.90;;;9.60;99.90;;;;;;4943579;29;20721;-70
2021/10/22 09:54:44;;;;;;;3.58;2.33;;;9.60;99.90;;;;;;4940202;29;20225;-70
2021/10/22 09:57:10;;;;;;;6.82;1.95;;;9.60;99.90;;;;;;4941582;28;20217;-71
2021/10/22 09:59:38;;;;;;;1.98;1.70;;;9.60;99.90;;;;;;4932771;29;20647;-70
2021/10/22 10:02:09;;;;;;;7.22;2.45;;;9.60;99.90;;;;;;4943699;29;20201;-72
2021/10/22 10:04:37;;;;;;;5.57;2.83;;;9.50;99.90;;;;;;4954862;28;20656;-70
2021/10/22 10:07:06;;;;;;;5.90;1.92;;;9.60;99.90;;;;;;4936495;28;20693;-69
2021/10/22 10:09:33;;;;;;;2.63;1.70;;;9.70;99.90;;;;;;4938125;29;20212;-72
2021/10/22 10:12:02;;;;;;;2.20;1.90;;;9.70;99.90;;;;;;4934373;29;20224;-69
2021/10/22 10:14:30;;;;;;;7.65;2.30;;;9.70;99.90;;;;;;4945180;29;20213;-69
2021/10/22 10:16:58;;;;;;;2.63;2.20;;;9.70;99.90;;;;;;4965070;23;20269;-73
2021/10/22 10:19:26;;;;;;;6.40;1.77;;;9.60;99.90;;;;;;4937759;29;20290;-74
2021/10/22 10:21:56;;;;;;;3.05;1.75;;;9.50;99.90;;;;;;4936966;29;20653;-72
2021/10/22 10:24:30;;;;;;;4.57;2.58;;;9.40;99.90;;;;;;4934302;29;20216;-74
2021/10/22 10:27:07;;;;;;;3.83;2.15;;;9.30;99.90;;;;;;4938980;29;20225;-72
2021/10/22 10:29:37;;;;;;;3.25;2.05;;;9.10;99.90;;;;;;4950545;28;20209;-72
2021/10/22 10:32:06;;;;;;;3.40;2.10;;;9.00;99.90;;;;;;4951170;29;20216;-73
2021/10/22 10:34:45;;;;;;;1.90;1.80;;;9.00;99.90;;;;;;4951144;28;20220;-73
2021/10/22 10:37:27;;;;;;;4.40;2.15;;;9.00;99.90;;;;;;4952569;28;20241;-73
2021/10/22 10:39:57;;;;;;;2.00;1.85;;;9.00;99.90;;;;;;4952264;29;20240;-72
2021/10/22 10:42:32;;;;;;;2.75;2.55;;;9.00;99.90;;;;;;4952327;28;20201;-73
2021/10/22 10:45:02;;;;;;;3.33;2.30;;;8.90;99.90;;;;;;4952503;29;20581;-73
2021/10/22 10:47:42;;;;;;;3.70;2.20;;;8.90;99.90;;;;;;4952597;28;20205;-74
2021/10/22 10:50:09;;;;;;;3.67;2.30;;;8.90;99.90;;;;;;4952000;28;20212;-73
2021/10/22 10:53:03;;;;;;;9.88;2.90;;;8.90;99.90;;;;;;4950110;28;20209;-73
2021/10/22 10:55:32;;;;;;;5.32;2.35;;;8.90;99.90;;;;;;4951708;29;20244;-74
2021/10/22 10:58:16;;;;;;;2.60;2.40;;;8.80;99.90;;;;;;4951731;28;20264;-73
2021/10/22 11:00:45;;;;;;;2.28;2.08;;;8.80;99.90;;;;;;4952096;28;20206;-73
2021/10/22 11:03:43;;;;;;;4.03;1.85;;;8.80;99.90;;;;;;4951576;29;20275;-73
2021/10/22 11:06:16;;;;;;;1.85;1.52;;;8.90;99.90;;;;;;4948310;29;20295;-72
2021/10/22 11:08:50;;;;;;;1.50;1.50;;;8.90;99.90;;;;;;4952360;28;20233;-72
2021/10/22 11:11:41;;;;;;;23.88;11.32;;;8.90;99.90;;;;;;4951650;29;20208;-71
2021/10/22 11:14:20;;;;;;;1.67;1.50;;;8.90;99.90;;;;;;4952374;28;20215;-72
2021/10/22 11:16:52;;;;;;;3.58;1.50;;;8.90;99.90;;;;;;4951605;28;20801;-71
2021/10/22 11:19:23;;;;;;;5.07;2.00;;;8.80;99.90;;;;;;4952258;29;20240;-72
2021/10/22 11:21:52;;;;;;;4.00;2.30;;;8.80;99.90;;;;;;4951694;28;20300;-71
2021/10/22 11:24:20;;;;;;;3.90;3.53;;;8.70;99.90;;;;;;4952342;29;20205;-72
2021/10/22 11:26:54;;;;;;;2.85;1.35;;;8.70;99.90;;;;;;4950023;28;20306;-72
2021/10/22 11:29:23;;;;;;;2.53;1.10;;;8.80;99.90;;;;;;4951022;28;20205;-75
2021/10/22 11:31:53;;;;;;;2.72;1.85;;;8.80;99.90;;;;;;4951837;28;20267;-72
2021/10/22 11:34:21;;;;;;;1.50;1.40;;;8.80;99.90;;;;;;4952200;29;20306;-72
2021/10/22 11:36:52;;;;;;;1.95;0.90;;;8.80;99.90;;;;;;4948663;29;20225;-72
2021/10/22 11:39:22;;;;;;;2.40;1.30;;;8.80;99.90;;;;;;4951223;29;20256;-73
2021/10/22 11:42:07;;;;;;;3.85;1.10;;;8.80;99.90;;;;;;4946883;29;20211;-72
2021/10/22 11:44:37;;;;;;;4.20;1.20;;;8.80;99.90;;;;;;4950939;28;20672;-72
2021/10/22 11:47:05;;;;;;;3.83;1.77;;;8.70;99.90;;;;;;4943120;28;20217;-72
2021/10/22 11:49:33;;;;;;;1.10;1.10;;;8.70;99.90;;;;;;4948691;29;20235;-72
2021/10/22 11:52:01;;;;;;;1.30;1.20;;;8.70;99.90;;;;;;4950762;29;20576;-72
2021/10/22 11:54:33;;;;;;;3.40;1.30;;;8.70;99.90;;;;;;4952116;29;20213;-72
2021/10/22 11:57:00;;;;;;;1.38;1.27;;;8.70;99.90;;;;;;4950506;29;20267;-72
2021/10/22 11:59:27;;;;;;;1.55;1.30;;;8.70;99.90;;;;;;4939121;29;20663;-74
2021/10/22 12:02:04;;;;;;;1.10;1.00;;;8.80;99.90;;;;;;4951588;28;20209;-73
2021/10/22 12:04:31;;;;;;;2.47;1.10;;;8.90;99.90;;;;;;4952958;28;20245;-73
2021/10/22 12:07:02;;;;;;;1.15;1.15;;;8.90;99.90;;;;;;4955592;29;20301;-73
2021/10/22 12:09:35;;;;;;;1.15;1.00;;;9.00;99.90;;;;;;4954087;29;20572;-72
2021/10/22 12:12:07;;;;;;;1.48;0.82;;;9.00;99.90;;;;;;4953535;29;20214;-72
2021/10/22 12:14:40;;;;;;;4.20;2.20;;;9.00;99.90;;;;;;4954941;28;20209;-72
2021/10/22 12:17:11;;;;;;;1.75;1.27;;;9.00;99.90;;;;;;4955536;29;20236;-72
2021/10/22 12:19:43;;;;;;;2.65;2.42;;;9.10;99.90;;;;;;4955433;28;20202;-73
2021/10/22 12:22:11;;;;;;;2.67;0.90;;;9.20;99.90;;;;;;4950183;29;20248;-73
2021/10/22 12:24:46;;;;;;;1.40;1.10;;;9.20;99.90;;;;;;4939662;29;20220;-73
2021/10/22 12:27:13;;;;;;;1.80;1.80;;;9.20;99.90;;;;;;4953808;29;20232;-73
2021/10/22 12:29:54;;;;;;;1.20;1.20;;;9.10;99.90;;;;;;4954521;28;20223;-72
2021/10/22 12:32:47;;;;;;;3.42;1.60;;;9.00;99.90;;;;;;4955012;29;20213;-73
2021/10/22 12:35:21;;;;;;;2.17;0.70;;;8.80;99.90;;;;;;4948228;29;20561;-73
2021/10/22 12:37:50;;;;;;;0.70;0.70;;;8.70;99.90;;;;;;4955588;29;20225;-72
2021/10/22 12:40:23;;;;;;;4.25;1.50;;;8.60;99.90;;;;;;4954544;29;20217;-73
2021/10/22 12:43:23;;;;;;;1.42;0.82;;;8.50;99.90;;;;;;4954597;29;20205;-73
2021/10/22 12:45:52;;;;;;;1.73;0.50;;;8.50;99.90;;;;;;4950650;29;20328;-73
2021/10/22 12:48:22;;;;;;;1.95;1.85;;;8.40;99.90;;;;;;4953001;29;20202;-74
2021/10/22 12:50:49;;;;;;;0.40;0.40;;;8.50;99.90;;;;;;4948674;28;20726;-73
2021/10/22 12:53:20;;;;;;;1.00;0.70;;;8.60;99.90;;;;;;4955142;29;20206;-72
2021/10/22 12:56:00;;;;;;;1.20;0.73;;;8.70;99.90;;;;;;4954467;29;20229;-72
2021/10/22 12:58:27;;;;;;;1.00;0.70;;;8.80;99.90;;;;;;4952526;29;20217;-72
2021/10/22 13:01:10;;;;;;;0.60;0.60;;;8.80;99.90;;;;;;4955109;29;20209;-72
2021/10/22 13:03:40;;;;;;;0.30;0.30;;;8.80;99.90;;;;;;4954787;29;20276;-72
2021/10/22 13:06:26;;;;;;;0.50;0.50;;;8.90;99.90;;;;;;4954775;29;20254;-72
2021/10/22 13:09:04;;;;;;;1.13;0.40;;;8.90;99.90;;;;;;4954785;29;20220;-72
2021/10/22 13:11:57;;;;;;;1.70;1.08;;;8.90;99.90;;;;;;4954728;29;20201;-72
2021/10/22 13:22:49;;;;;;;1.08;0.85;;;8.90;99.90;;;;;;4954607;29;20224;-72
2021/10/22 13:25:16;;;;;;;2.15;0.57;;;8.90;99.90;;;;;;4953421;29;20244;-72
2021/10/22 13:27:43;;;;;;;0.82;0.73;;;8.80;99.90;;;;;;4951796;28;20669;-71
2021/10/22 13:30:13;;;;;;;2.28;1.40;;;8.80;99.90;;;;;;4953372;28;20202;-72
2021/10/22 13:32:40;;;;;;;2.80;1.23;;;8.70;99.90;;;;;;4946940;28;20241;-72
2021/10/22 13:35:09;;;;;;;1.65;1.25;;;8.70;99.90;;;;;;4949528;29;20213;-71
2021/10/22 13:37:37;;;;;;;0.70;0.70;;;8.70;99.90;;;;;;4950980;29;20713;-72
2021/10/22 13:40:05;;;;;;;0.47;0.47;;;8.60;99.90;;;;;;4942431;29;20220;-72
2021/10/22 13:42:32;;;;;;;0.63;0.63;;;8.50;99.90;;;;;;4953568;29;20216;-72
2021/10/22 13:44:59;;;;;;;1.23;1.13;;;8.50;99.90;;;;;;4953959;29;20282;-72
2021/10/22 13:47:26;;;;;;;1.30;0.88;;;8.40;99.90;;;;;;4953782;29;20205;-72
2021/10/22 13:49:53;;;;;;;2.97;1.73;;;8.40;99.90;;;;;;4953391;28;20209;-72
2021/10/22 13:52:22;;;;;;;2.03;1.70;;;8.40;99.90;;;;;;4953842;29;20209;-72
2021/10/22 13:54:49;;;;;;;1.42;1.33;;;8.40;99.90;;;;;;4953330;29;20277;-73
2021/10/22 13:57:15;;;;;;;2.92;1.60;;;8.40;99.90;;;;;;4953352;29;20256;-74
2021/10/22 13:59:42;;;;;;;0.68;0.68;;;8.40;99.90;;;;;;4951531;28;20202;-73
2021/10/22 14:02:09;;;;;;;0.88;0.68;;;8.40;99.90;;;;;;4953386;29;20212;-74
2021/10/22 14:04:36;;;;;;;0.82;0.82;;;8.40;99.90;;;;;;4953986;28;20288;-72
2021/10/22 14:07:03;;;;;;;1.40;0.82;;;8.40;99.90;;;;;;4952840;28;20232;-72
2021/10/22 14:09:31;;;;;;;1.25;0.65;;;8.40;99.90;;;;;;4953589;29;20213;-73
2021/10/22 14:12:04;;;;;;;0.93;0.40;;;8.40;99.90;;;;;;4952733;29;20549;-72
2021/10/22 14:14:37;;;;;;;1.35;0.90;;;8.40;99.90;;;;;;4951472;29;20684;-72
2021/10/22 14:17:19;;;;;;;4.10;1.65;;;8.40;99.90;;;;;;4952167;29;20225;-74
2021/10/22 14:20:03;;;;;;;0.70;0.70;;;8.30;99.90;;;;;;4940142;29;20220;-74
2021/10/22 14:30:44;;;;;;;2.45;1.80;;;8.40;99.90;;;;;;4953185;29;20196;-73
2021/10/22 14:33:11;;;;;;;1.30;1.30;;;8.50;99.90;;;;;;4953453;29;20605;-74
2021/10/22 14:35:38;;;;;;;1.80;1.70;;;8.50;99.90;;;;;;4952957;29;20620;-73
2021/10/22 14:38:05;;;;;;;2.08;1.45;;;8.50;99.90;;;;;;4952815;28;20331;-73
2021/10/22 14:40:35;;;;;;;2.63;1.45;;;8.50;99.90;;;;;;4952469;29;20213;-73
2021/10/22 14:43:03;;;;;;;1.25;1.02;;;8.60;99.90;;;;;;4952453;29;20666;-73
2021/10/22 14:45:37;;;;;;;2.17;2.08;;;8.60;99.90;;;;;;4952487;29;20257;-74
2021/10/22 14:48:07;;;;;;;1.25;1.15;;;8.70;99.90;;;;;;4952831;28;20193;-73
2021/10/22 14:50:37;;;;;;;1.17;1.10;;;8.70;99.90;;;;;;4946469;28;20268;-74
2021/10/22 14:53:32;;;;;;;1.92;1.40;;;8.70;99.90;;;;;;4953103;29;20291;-73
2021/10/22 14:56:00;;;;;;;3.00;1.48;;;8.70;99.90;;;;;;4951675;29;20587;-74
2021/10/22 14:58:27;;;;;;;4.22;3.22;;;8.70;99.90;;;;;;4951513;29;20308;-74
2021/10/22 15:00:54;;;;;;;2.53;2.10;;;8.70;99.90;;;;;;4952936;28;20208;-73
2021/10/22 15:03:21;;;;;;;3.47;2.60;;;8.70;99.90;;;;;;4952107;28;20237;-73
2021/10/22 15:05:48;;;;;;;2.22;2.10;;;8.60;99.90;;;;;;4952503;28;20567;-73
2021/10/22 15:08:16;;;;;;;1.30;0.70;;;8.60;99.90;;;;;;4952526;29;20197;-74
2021/10/22 15:10:43;;;;;;;1.38;1.20;;;8.60;99.90;;;;;;4952488;29;20205;-73
2021/10/22 15:13:12;;;;;;;2.88;2.38;;;8.50;99.90;;;;;;4952519;29;20586;-73
2021/10/22 15:15:40;;;;;;;1.20;0.90;;;8.40;99.90;;;;;;4952119;29;20316;-73
2021/10/22 15:18:07;;;;;;;1.50;1.38;;;8.40;99.90;;;;;;4945990;28;20579;-73
2021/10/22 15:20:34;;;;;;;0.85;0.85;;;8.40;99.90;;;;;;4948507;29;20300;-73
2021/10/22 15:23:01;;;;;;;1.30;1.30;;;8.40;99.90;;;;;;4952089;29;20413;-73
2021/10/22 15:25:27;;;;;;;2.28;2.17;;;8.30;99.90;;;;;;4952076;29;20228;-72
2021/10/22 15:27:54;;;;;;;0.98;0.98;;;8.30;99.90;;;;;;4951240;28;20573;-73
2021/10/22 15:30:23;;;;;;;2.15;0.90;;;8.20;99.90;;;;;;4952085;29;20212;-73
2021/10/22 15:32:50;;;;;;;0.90;0.90;;;8.10;99.90;;;;;;4952233;29;20212;-73
2021/10/22 15:35:17;;;;;;;1.20;0.60;;;8.00;99.90;;;;;;4951970;29;20213;-73
2021/10/22 15:37:45;;;;;;;0.70;0.70;;;8.10;99.90;;;;;;4951128;28;20225;-72
2021/10/22 15:40:12;;;;;;;1.20;1.20;;;8.00;99.90;;;;;;4951132;28;20208;-72
2021/10/22 15:42:39;;;;;;;0.77;0.77;;;8.00;99.90;;;;;;4955662;28;20209;-69
2021/10/22 15:45:07;;;;;;;1.60;0.88;;;8.00;99.90;;;;;;4953968;28;20272;-71
2021/10/22 15:47:35;;;;;;;1.27;1.20;;;8.00;99.90;;;;;;4963886;28;20638;-71
2021/10/22 15:50:02;;;;;;;0.90;0.90;;;7.90;99.90;;;;;;4955505;29;20204;-72
2021/10/22 15:52:29;;;;;;;1.10;1.00;;;7.90;99.90;;;;;;4955187;29;20543;-72
2021/10/22 15:54:57;;;;;;;0.70;0.57;;;7.80;99.90;;;;;;4954953;28;20316;-72
2021/10/22 15:57:25;;;;;;;1.27;1.25;;;7.80;99.90;;;;;;4950459;29;20237;-71
2021/10/22 15:59:52;;;;;;;1.42;1.10;;;7.70;99.90;;;;;;4954115;28;20220;-72
2021/10/22 16:02:20;;;;;;;2.55;1.40;;;7.60;99.90;;;;;;4955389;29;20201;-72
2021/10/22 16:04:48;;;;;;;2.20;1.30;;;7.60;99.90;;;;;;4952369;29;20209;-72
2021/10/22 16:07:20;;;;;;;1.25;1.25;;;7.60;99.90;;;;;;4951228;28;20279;-72
2021/10/22 16:09:52;;;;;;;1.52;1.42;;;7.50;99.90;;;;;;4954714;28;20216;-72
2021/10/22 16:12:25;;;;;;;1.50;1.50;;;7.50;99.90;;;;;;4947771;28;20197;-72
2021/10/22 16:15:05;;;;;;;2.83;1.60;;;7.40;99.90;;;;;;4953575;28;20232;-72
2021/10/22 16:17:33;;;;;;;1.23;1.23;;;7.40;99.90;;;;;;4950953;29;20327;-72
2021/10/22 16:20:03;;;;;;;1.20;0.90;;;7.40;99.90;;;;;;4955186;29;21063;-72
2021/10/22 16:22:30;;;;;;;1.45;1.33;;;7.30;99.90;;;;;;4964998;28;20227;-71
2021/10/22 16:24:57;;;;;;;3.55;1.13;;;7.30;99.90;;;;;;4954906;29;20216;-72
2021/10/22 16:27:24;;;;;;;2.15;1.40;;;7.30;99.90;;;;;;4954894;29;20232;-72
2021/10/22 16:29:51;;;;;;;2.17;1.27;;;7.20;99.90;;;;;;4954765;29;20556;-72
2021/10/22 16:32:18;;;;;;;1.25;1.25;;;7.20;99.90;;;;;;4955213;29;20581;-72
2021/10/22 16:37:33;;;;;;;1.80;1.70;;;7.10;99.90;;;;;;4953014;29;20550;-72
2021/10/22 16:40:02;;;;;;;1.83;1.05;;;7.10;99.90;;;;;;4953389;29;20209;-72
2021/10/22 16:42:29;;;;;;;2.75;2.50;;;7.10;99.90;;;;;;4954890;29;20232;-72
2021/10/22 16:44:59;;;;;;;2.00;1.90;;;7.00;99.90;;;;;;4954829;29;20299;-72
2021/10/22 16:47:26;;;;;;;2.17;2.08;;;7.00;99.90;;;;;;4954752;29;20220;-73
2021/10/22 16:49:52;;;;;;;2.92;2.03;;;7.00;99.90;;;;;;4948023;28;20205;-72
2021/10/22 16:52:19;;;;;;;1.70;1.63;;;6.90;99.90;;;;;;4954530;28;20554;-72
2021/10/22 16:54:47;;;;;;;3.10;1.83;;;6.90;99.90;;;;;;4953109;28;20577;-72
2021/10/22 16:57:14;;;;;;;3.50;1.38;;;6.90;99.90;;;;;;4953702;29;20273;-72
2021/10/22 16:59:41;;;;;;;3.53;1.52;;;6.80;99.90;;;;;;4954182;29;20225;-72
2021/10/22 17:02:08;;;;;;;2.30;1.50;;;6.80;99.90;;;;;;4954496;29;20201;-72
2021/10/22 17:04:36;;;;;;;1.25;1.02;;;6.80;99.90;;;;;;4952174;28;20239;-72
2021/10/22 17:07:04;;;;;;;1.55;1.45;;;6.80;99.90;;;;;;4949361;28;20225;-72
2021/10/22 17:09:31;;;;;;;1.20;1.20;;;6.80;99.90;;;;;;4964203;28;20303;-72
2021/10/22 17:11:59;;;;;;;2.15;2.05;;;6.80;99.90;;;;;;4961032;28;20733;-72
2021/10/22 17:14:27;;;;;;;2.63;1.17;;;6.70;99.90;;;;;;4953703;29;20217;-72
2021/10/22 17:16:54;;;;;;;1.67;1.45;;;6.70;99.90;;;;;;4954077;28;20829;-72
2021/10/22 17:19:21;;;;;;;2.55;2.35;;;6.70;99.90;;;;;;4954006;29;20331;-71
2021/10/22 17:21:48;;;;;;;2.05;1.30;;;6.70;99.90;;;;;;4954685;29;20272;-72
2021/10/22 17:24:15;;;;;;;4.63;1.35;;;6.80;99.90;;;;;;4955242;29;20217;-72
2021/10/22 17:26:41;;;;;;;2.92;1.60;;;6.80;99.90;;;;;;4953351;29;20276;-72
2021/10/22 17:29:12;;;;;;;2.47;1.25;;;6.80;99.90;;;;;;4953315;28;20598;-72
2021/10/22 17:31:39;;;;;;;5.50;3.85;;;6.80;99.90;;;;;;4955825;28;20261;-72
2021/10/22 17:34:06;;;;;;;4.47;2.00;;;6.80;99.90;;;;;;4954206;29;20604;-72